sensor_id;sensor_type;location;lat;lon;timestamp;P1;durP1;ratioP1;P2;durP2;ratioP2
17606;SDS011;69222;52.242;20.980;2023-07-13T00:00:04;7.25;;;6.15;;
17606;SDS011;69222;52.242;20.980;2023-07-13T00:02:36;7.25;;;6.55;;
17606;SDS011;69222;52.242;20.980;2023-07-13T00:05:04;7.40;;;6.72;;
17606;SDS011;69222;52.242;20.980;2023-07-13T00:07:34;8.77;;;6.78;;
17606;SDS011;69222;52.242;20.980;2023-07-13T00:10:04;9.50;;;6.53;;
17606;SDS011;69222;52.242;20.980;2023-07-13T00:12:34;8.00;;;5.85;;
17606;SDS011;69222;52.242;20.980;2023-07-13T00:15:06;8.35;;;6.85;;
17606;SDS011;69222;52.242;20.980;2023-07-13T00:17:37;8.70;;;6.32;;
17606;SDS011;69222;52.242;20.980;2023-07-13T00:20:06;7.50;;;6.65;;
17606;SDS011;69222;52.242;20.980;2023-07-13T00:22:35;7.47;;;6.78;;
17606;SDS011;69222;52.242;20.980;2023-07-13T00:25:06;7.70;;;6.50;;
17606;SDS011;69222;52.242;20.980;2023-07-13T00:27:34;7.18;;;6.40;;
17606;SDS011;69222;52.242;20.980;2023-07-13T00:30:02;7.53;;;6.65;;
17606;SDS011;69222;52.242;20.980;2023-07-13T00:32:31;6.60;;;5.90;;
17606;SDS011;69222;52.242;20.980;2023-07-13T00:34:59;7.53;;;6.30;;
17606;SDS011;69222;52.242;20.980;2023-07-13T00:37:29;8.68;;;6.93;;
17606;SDS011;69222;52.242;20.980;2023-07-13T00:39:58;7.72;;;6.82;;
17606;SDS011;69222;52.242;20.980;2023-07-13T00:42:27;11.23;;;7.03;;
17606;SDS011;69222;52.242;20.980;2023-07-13T00:45:02;8.50;;;6.90;;
17606;SDS011;69222;52.242;20.980;2023-07-13T00:47:31;9.20;;;7.15;;
17606;SDS011;69222;52.242;20.980;2023-07-13T00:50:00;11.18;;;6.97;;
17606;SDS011;69222;52.242;20.980;2023-07-13T00:52:29;8.18;;;6.70;;
17606;SDS011;69222;52.242;20.980;2023-07-13T00:54:58;9.90;;;7.07;;
17606;SDS011;69222;52.242;20.980;2023-07-13T00:57:27;8.30;;;7.40;;
17606;SDS011;69222;52.242;20.980;2023-07-13T00:59:56;8.15;;;6.97;;
17606;SDS011;69222;52.242;20.980;2023-07-13T01:02:27;7.75;;;6.95;;
17606;SDS011;69222;52.242;20.980;2023-07-13T01:04:56;9.38;;;7.82;;
17606;SDS011;69222;52.242;20.980;2023-07-13T01:07:24;8.10;;;7.25;;
17606;SDS011;69222;52.242;20.980;2023-07-13T01:09:52;8.25;;;7.13;;
17606;SDS011;69222;52.242;20.980;2023-07-13T01:12:20;8.32;;;7.53;;
17606;SDS011;69222;52.242;20.980;2023-07-13T01:14:55;8.05;;;7.15;;
17606;SDS011;69222;52.242;20.980;2023-07-13T01:17:24;8.23;;;7.20;;
17606;SDS011;69222;52.242;20.980;2023-07-13T01:19:52;9.07;;;7.00;;
17606;SDS011;69222;52.242;20.980;2023-07-13T01:22:22;9.45;;;7.03;;
17606;SDS011;69222;52.242;20.980;2023-07-13T01:24:53;9.05;;;7.47;;
17606;SDS011;69222;52.242;20.980;2023-07-13T01:27:22;9.07;;;7.43;;
17606;SDS011;69222;52.242;20.980;2023-07-13T01:29:52;9.95;;;7.35;;
17606;SDS011;69222;52.242;20.980;2023-07-13T01:32:30;10.07;;;8.15;;
17606;SDS011;69222;52.242;20.980;2023-07-13T01:34:59;9.23;;;7.88;;
17606;SDS011;69222;52.242;20.980;2023-07-13T01:37:28;10.25;;;8.00;;
17606;SDS011;69222;52.242;20.980;2023-07-13T01:39:59;8.85;;;7.15;;
17606;SDS011;69222;52.242;20.980;2023-07-13T01:42:27;8.60;;;7.63;;
17606;SDS011;69222;52.242;20.980;2023-07-13T01:44:55;9.50;;;7.43;;
17606;SDS011;69222;52.242;20.980;2023-07-13T01:47:23;9.23;;;7.55;;
17606;SDS011;69222;52.242;20.980;2023-07-13T01:49:52;8.07;;;7.28;;
17606;SDS011;69222;52.242;20.980;2023-07-13T01:52:20;9.35;;;8.38;;
17606;SDS011;69222;52.242;20.980;2023-07-13T01:54:50;9.23;;;7.63;;
17606;SDS011;69222;52.242;20.980;2023-07-13T01:57:18;8.93;;;8.05;;
17606;SDS011;69222;52.242;20.980;2023-07-13T01:59:46;8.52;;;7.63;;
17606;SDS011;69222;52.242;20.980;2023-07-13T02:02:14;9.05;;;7.65;;
17606;SDS011;69222;52.242;20.980;2023-07-13T02:04:42;10.43;;;8.35;;
17606;SDS011;69222;52.242;20.980;2023-07-13T02:07:10;10.65;;;7.88;;
17606;SDS011;69222;52.242;20.980;2023-07-13T02:09:38;10.20;;;7.55;;
17606;SDS011;69222;52.242;20.980;2023-07-13T02:12:08;9.05;;;7.68;;
17606;SDS011;69222;52.242;20.980;2023-07-13T02:14:36;9.68;;;8.30;;
17606;SDS011;69222;52.242;20.980;2023-07-13T02:17:04;10.23;;;7.97;;
17606;SDS011;69222;52.242;20.980;2023-07-13T02:19:33;9.52;;;8.55;;
17606;SDS011;69222;52.242;20.980;2023-07-13T02:22:01;8.35;;;7.55;;
17606;SDS011;69222;52.242;20.980;2023-07-13T02:24:29;9.68;;;8.75;;
17606;SDS011;69222;52.242;20.980;2023-07-13T02:26:57;11.52;;;8.25;;
17606;SDS011;69222;52.242;20.980;2023-07-13T02:29:26;10.18;;;8.57;;
17606;SDS011;69222;52.242;20.980;2023-07-13T02:31:54;10.60;;;8.75;;
17606;SDS011;69222;52.242;20.980;2023-07-13T02:34:22;10.55;;;8.50;;
17606;SDS011;69222;52.242;20.980;2023-07-13T02:36:50;11.57;;;9.13;;
17606;SDS011;69222;52.242;20.980;2023-07-13T02:39:18;9.80;;;8.00;;
17606;SDS011;69222;52.242;20.980;2023-07-13T02:41:46;9.15;;;8.07;;
17606;SDS011;69222;52.242;20.980;2023-07-13T02:44:14;9.50;;;8.23;;
17606;SDS011;69222;52.242;20.980;2023-07-13T02:46:44;9.90;;;8.52;;
17606;SDS011;69222;52.242;20.980;2023-07-13T02:49:12;9.98;;;8.93;;
17606;SDS011;69222;52.242;20.980;2023-07-13T02:51:40;11.65;;;9.07;;
17606;SDS011;69222;52.242;20.980;2023-07-13T02:54:08;10.73;;;8.85;;
17606;SDS011;69222;52.242;20.980;2023-07-13T02:56:39;12.60;;;8.23;;
17606;SDS011;69222;52.242;20.980;2023-07-13T02:59:09;9.27;;;8.25;;
17606;SDS011;69222;52.242;20.980;2023-07-13T03:01:38;11.73;;;9.30;;
17606;SDS011;69222;52.242;20.980;2023-07-13T03:04:08;10.60;;;9.00;;
17606;SDS011;69222;52.242;20.980;2023-07-13T03:06:36;10.27;;;8.20;;
17606;SDS011;69222;52.242;20.980;2023-07-13T03:09:04;11.93;;;9.23;;
17606;SDS011;69222;52.242;20.980;2023-07-13T03:11:33;10.70;;;8.85;;
17606;SDS011;69222;52.242;20.980;2023-07-13T03:14:01;8.95;;;8.05;;
17606;SDS011;69222;52.242;20.980;2023-07-13T03:16:29;9.82;;;8.82;;
17606;SDS011;69222;52.242;20.980;2023-07-13T03:18:57;12.25;;;9.93;;
17606;SDS011;69222;52.242;20.980;2023-07-13T03:21:26;11.27;;;9.18;;
17606;SDS011;69222;52.242;20.980;2023-07-13T03:23:54;11.65;;;9.15;;
17606;SDS011;69222;52.242;20.980;2023-07-13T03:26:22;9.88;;;8.73;;
17606;SDS011;69222;52.242;20.980;2023-07-13T03:28:50;10.38;;;9.10;;
17606;SDS011;69222;52.242;20.980;2023-07-13T03:31:20;11.25;;;9.50;;
17606;SDS011;69222;52.242;20.980;2023-07-13T03:33:49;12.60;;;9.52;;
17606;SDS011;69222;52.242;20.980;2023-07-13T03:36:19;12.70;;;8.60;;
17606;SDS011;69222;52.242;20.980;2023-07-13T03:38:50;10.52;;;9.13;;
17606;SDS011;69222;52.242;20.980;2023-07-13T03:41:20;11.40;;;8.85;;
17606;SDS011;69222;52.242;20.980;2023-07-13T03:43:49;10.35;;;9.25;;
17606;SDS011;69222;52.242;20.980;2023-07-13T03:46:17;11.55;;;8.63;;
17606;SDS011;69222;52.242;20.980;2023-07-13T03:48:46;10.40;;;8.88;;
17606;SDS011;69222;52.242;20.980;2023-07-13T03:51:15;11.93;;;9.00;;
17606;SDS011;69222;52.242;20.980;2023-07-13T03:53:45;16.67;;;9.80;;
17606;SDS011;69222;52.242;20.980;2023-07-13T03:56:16;11.13;;;9.90;;
17606;SDS011;69222;52.242;20.980;2023-07-13T03:58:46;11.10;;;9.52;;
17606;SDS011;69222;52.242;20.980;2023-07-13T04:01:15;12.25;;;10.05;;
17606;SDS011;69222;52.242;20.980;2023-07-13T04:03:44;10.65;;;9.45;;
17606;SDS011;69222;52.242;20.980;2023-07-13T04:06:15;12.77;;;9.48;;
17606;SDS011;69222;52.242;20.980;2023-07-13T04:08:48;13.73;;;10.07;;
17606;SDS011;69222;52.242;20.980;2023-07-13T04:11:19;12.57;;;10.13;;
17606;SDS011;69222;52.242;20.980;2023-07-13T04:13:49;12.77;;;9.93;;
17606;SDS011;69222;52.242;20.980;2023-07-13T04:16:18;10.98;;;9.73;;
17606;SDS011;69222;52.242;20.980;2023-07-13T04:18:46;12.35;;;10.38;;
17606;SDS011;69222;52.242;20.980;2023-07-13T04:21:15;12.25;;;9.82;;
17606;SDS011;69222;52.242;20.980;2023-07-13T04:23:44;12.77;;;10.07;;
17606;SDS011;69222;52.242;20.980;2023-07-13T04:26:12;10.55;;;9.18;;
17606;SDS011;69222;52.242;20.980;2023-07-13T04:28:41;11.43;;;9.90;;
17606;SDS011;69222;52.242;20.980;2023-07-13T04:31:09;11.07;;;8.98;;
17606;SDS011;69222;52.242;20.980;2023-07-13T04:33:37;11.48;;;10.25;;
17606;SDS011;69222;52.242;20.980;2023-07-13T04:36:05;13.15;;;10.40;;
17606;SDS011;69222;52.242;20.980;2023-07-13T04:38:36;12.45;;;10.93;;
17606;SDS011;69222;52.242;20.980;2023-07-13T04:41:05;11.77;;;9.80;;
17606;SDS011;69222;52.242;20.980;2023-07-13T04:43:35;13.68;;;10.02;;
17606;SDS011;69222;52.242;20.980;2023-07-13T04:46:05;21.35;;;10.45;;
17606;SDS011;69222;52.242;20.980;2023-07-13T04:48:35;14.52;;;9.68;;
17606;SDS011;69222;52.242;20.980;2023-07-13T04:51:03;18.58;;;11.15;;
17606;SDS011;69222;52.242;20.980;2023-07-13T04:53:32;12.18;;;9.77;;
17606;SDS011;69222;52.242;20.980;2023-07-13T04:56:01;11.20;;;9.45;;
17606;SDS011;69222;52.242;20.980;2023-07-13T04:58:29;11.00;;;9.50;;
17606;SDS011;69222;52.242;20.980;2023-07-13T05:01:01;16.42;;;10.57;;
17606;SDS011;69222;52.242;20.980;2023-07-13T05:03:32;20.88;;;13.48;;
17606;SDS011;69222;52.242;20.980;2023-07-13T05:06:02;28.40;;;20.50;;
17606;SDS011;69222;52.242;20.980;2023-07-13T05:08:31;15.13;;;11.95;;
17606;SDS011;69222;52.242;20.980;2023-07-13T05:10:59;14.43;;;10.57;;
17606;SDS011;69222;52.242;20.980;2023-07-13T05:13:28;14.43;;;10.13;;
17606;SDS011;69222;52.242;20.980;2023-07-13T05:15:57;18.15;;;11.57;;
17606;SDS011;69222;52.242;20.980;2023-07-13T05:18:26;15.30;;;11.35;;
17606;SDS011;69222;52.242;20.980;2023-07-13T05:21:00;15.65;;;11.80;;
17606;SDS011;69222;52.242;20.980;2023-07-13T05:23:30;16.65;;;11.35;;
17606;SDS011;69222;52.242;20.980;2023-07-13T05:25:59;17.45;;;11.63;;
17606;SDS011;69222;52.242;20.980;2023-07-13T05:28:27;16.23;;;10.70;;
17606;SDS011;69222;52.242;20.980;2023-07-13T05:30:56;16.75;;;11.10;;
17606;SDS011;69222;52.242;20.980;2023-07-13T05:33:24;13.20;;;10.60;;
17606;SDS011;69222;52.242;20.980;2023-07-13T05:35:53;13.32;;;10.68;;
17606;SDS011;69222;52.242;20.980;2023-07-13T05:38:23;11.82;;;10.60;;
17606;SDS011;69222;52.242;20.980;2023-07-13T05:40:52;16.75;;;10.85;;
17606;SDS011;69222;52.242;20.980;2023-07-13T05:43:21;13.05;;;10.85;;
17606;SDS011;69222;52.242;20.980;2023-07-13T05:45:51;12.23;;;10.68;;
17606;SDS011;69222;52.242;20.980;2023-07-13T05:48:20;12.52;;;10.70;;
17606;SDS011;69222;52.242;20.980;2023-07-13T05:50:48;13.73;;;11.13;;
17606;SDS011;69222;52.242;20.980;2023-07-13T05:53:16;14.32;;;10.68;;
17606;SDS011;69222;52.242;20.980;2023-07-13T05:55:46;14.32;;;10.90;;
17606;SDS011;69222;52.242;20.980;2023-07-13T05:58:16;11.38;;;10.05;;
17606;SDS011;69222;52.242;20.980;2023-07-13T06:00:45;25.88;;;11.57;;
17606;SDS011;69222;52.242;20.980;2023-07-13T06:03:14;10.98;;;9.88;;
17606;SDS011;69222;52.242;20.980;2023-07-13T06:05:42;13.27;;;10.40;;
17606;SDS011;69222;52.242;20.980;2023-07-13T06:08:10;15.70;;;9.80;;
17606;SDS011;69222;52.242;20.980;2023-07-13T06:10:38;15.80;;;9.15;;
17606;SDS011;69222;52.242;20.980;2023-07-13T06:13:08;12.68;;;8.70;;
17606;SDS011;69222;52.242;20.980;2023-07-13T06:15:36;13.77;;;8.55;;
17606;SDS011;69222;52.242;20.980;2023-07-13T06:18:04;8.40;;;7.53;;
17606;SDS011;69222;52.242;20.980;2023-07-13T06:20:33;9.70;;;7.57;;
17606;SDS011;69222;52.242;20.980;2023-07-13T06:23:02;9.50;;;7.13;;
17606;SDS011;69222;52.242;20.980;2023-07-13T06:25:30;8.27;;;6.80;;
17606;SDS011;69222;52.242;20.980;2023-07-13T06:27:58;9.10;;;5.57;;
17606;SDS011;69222;52.242;20.980;2023-07-13T06:30:28;7.63;;;6.82;;
17606;SDS011;69222;52.242;20.980;2023-07-13T06:32:56;8.00;;;6.30;;
17606;SDS011;69222;52.242;20.980;2023-07-13T06:35:24;8.57;;;6.07;;
17606;SDS011;69222;52.242;20.980;2023-07-13T06:37:52;16.40;;;7.00;;
17606;SDS011;69222;52.242;20.980;2023-07-13T06:40:20;7.03;;;5.85;;
17606;SDS011;69222;52.242;20.980;2023-07-13T06:42:48;10.13;;;6.18;;
17606;SDS011;69222;52.242;20.980;2023-07-13T06:45:16;8.77;;;5.93;;
17606;SDS011;69222;52.242;20.980;2023-07-13T06:47:45;8.63;;;5.88;;
17606;SDS011;69222;52.242;20.980;2023-07-13T06:50:14;7.15;;;4.97;;
17606;SDS011;69222;52.242;20.980;2023-07-13T06:52:42;6.47;;;4.68;;
17606;SDS011;69222;52.242;20.980;2023-07-13T06:55:10;4.50;;;4.10;;
17606;SDS011;69222;52.242;20.980;2023-07-13T06:57:38;4.28;;;3.88;;
17606;SDS011;69222;52.242;20.980;2023-07-13T07:00:06;6.30;;;4.97;;
17606;SDS011;69222;52.242;20.980;2023-07-13T07:02:36;10.98;;;5.15;;
17606;SDS011;69222;52.242;20.980;2023-07-13T07:05:06;6.90;;;4.40;;
17606;SDS011;69222;52.242;20.980;2023-07-13T07:07:34;5.10;;;4.45;;
17606;SDS011;69222;52.242;20.980;2023-07-13T07:10:02;7.10;;;4.50;;
17606;SDS011;69222;52.242;20.980;2023-07-13T07:12:31;3.55;;;3.00;;
17606;SDS011;69222;52.242;20.980;2023-07-13T07:14:59;2.70;;;2.50;;
17606;SDS011;69222;52.242;20.980;2023-07-13T07:17:27;2.30;;;2.10;;
17606;SDS011;69222;52.242;20.980;2023-07-13T07:19:55;3.50;;;2.13;;
17606;SDS011;69222;52.242;20.980;2023-07-13T07:22:24;2.45;;;2.20;;
17606;SDS011;69222;52.242;20.980;2023-07-13T07:24:53;3.50;;;2.50;;
17606;SDS011;69222;52.242;20.980;2023-07-13T07:27:22;2.75;;;2.55;;
17606;SDS011;69222;52.242;20.980;2023-07-13T07:29:52;4.80;;;2.78;;
17606;SDS011;69222;52.242;20.980;2023-07-13T07:32:40;3.08;;;2.38;;
17606;SDS011;69222;52.242;20.980;2023-07-13T07:35:12;5.15;;;3.28;;
17606;SDS011;69222;52.242;20.980;2023-07-13T07:37:41;6.88;;;3.20;;
17606;SDS011;69222;52.242;20.980;2023-07-13T07:40:12;32.55;;;6.22;;
17606;SDS011;69222;52.242;20.980;2023-07-13T07:42:43;5.30;;;3.38;;
17606;SDS011;69222;52.242;20.980;2023-07-13T07:45:11;5.13;;;3.15;;
17606;SDS011;69222;52.242;20.980;2023-07-13T07:47:39;10.13;;;3.38;;
17606;SDS011;69222;52.242;20.980;2023-07-13T07:50:08;5.68;;;2.75;;
17606;SDS011;69222;52.242;20.980;2023-07-13T07:52:36;5.38;;;2.83;;
17606;SDS011;69222;52.242;20.980;2023-07-13T07:55:07;4.05;;;2.65;;
17606;SDS011;69222;52.242;20.980;2023-07-13T07:57:38;4.15;;;3.20;;
17606;SDS011;69222;52.242;20.980;2023-07-13T08:00:09;8.73;;;2.80;;
17606;SDS011;69222;52.242;20.980;2023-07-13T08:02:41;3.95;;;2.88;;
17606;SDS011;69222;52.242;20.980;2023-07-13T08:05:14;4.78;;;3.05;;
17606;SDS011;69222;52.242;20.980;2023-07-13T08:07:45;5.75;;;3.15;;
17606;SDS011;69222;52.242;20.980;2023-07-13T08:10:15;6.28;;;3.30;;
17606;SDS011;69222;52.242;20.980;2023-07-13T08:12:43;19.52;;;4.53;;
17606;SDS011;69222;52.242;20.980;2023-07-13T08:15:31;3.13;;;2.83;;
17606;SDS011;69222;52.242;20.980;2023-07-13T08:17:59;3.25;;;2.60;;
17606;SDS011;69222;52.242;20.980;2023-07-13T08:20:26;3.80;;;2.70;;
17606;SDS011;69222;52.242;20.980;2023-07-13T08:22:54;2.95;;;2.67;;
17606;SDS011;69222;52.242;20.980;2023-07-13T08:25:24;4.30;;;3.10;;
17606;SDS011;69222;52.242;20.980;2023-07-13T08:27:52;4.43;;;2.80;;
17606;SDS011;69222;52.242;20.980;2023-07-13T08:30:20;5.50;;;3.20;;
17606;SDS011;69222;52.242;20.980;2023-07-13T08:32:49;5.43;;;3.20;;
17606;SDS011;69222;52.242;20.980;2023-07-13T08:35:17;3.95;;;3.05;;
17606;SDS011;69222;52.242;20.980;2023-07-13T08:37:46;4.15;;;3.30;;
17606;SDS011;69222;52.242;20.980;2023-07-13T08:40:14;7.40;;;3.55;;
17606;SDS011;69222;52.242;20.980;2023-07-13T08:42:46;4.13;;;3.55;;
17606;SDS011;69222;52.242;20.980;2023-07-13T08:45:22;3.65;;;3.35;;
17606;SDS011;69222;52.242;20.980;2023-07-13T08:47:53;3.95;;;3.55;;
17606;SDS011;69222;52.242;20.980;2023-07-13T08:50:25;6.53;;;4.38;;
17606;SDS011;69222;52.242;20.980;2023-07-13T08:53:19;4.15;;;3.75;;
17606;SDS011;69222;52.242;20.980;2023-07-13T08:55:56;8.18;;;4.25;;
17606;SDS011;69222;52.242;20.980;2023-07-13T08:58:27;5.65;;;3.92;;
17606;SDS011;69222;52.242;20.980;2023-07-13T09:00:59;4.50;;;4.10;;
17606;SDS011;69222;52.242;20.980;2023-07-13T09:03:36;6.03;;;4.38;;
17606;SDS011;69222;52.242;20.980;2023-07-13T09:06:08;4.25;;;3.80;;
17606;SDS011;69222;52.242;20.980;2023-07-13T09:08:46;5.78;;;4.25;;
17606;SDS011;69222;52.242;20.980;2023-07-13T09:11:30;4.45;;;4.07;;
17606;SDS011;69222;52.242;20.980;2023-07-13T09:14:16;4.07;;;3.65;;
17606;SDS011;69222;52.242;20.980;2023-07-13T09:17:10;4.45;;;4.05;;
17606;SDS011;69222;52.242;20.980;2023-07-13T09:19:42;4.40;;;4.00;;
17606;SDS011;69222;52.242;20.980;2023-07-13T09:22:15;4.45;;;4.05;;
17606;SDS011;69222;52.242;20.980;2023-07-13T09:24:50;7.65;;;4.00;;
17606;SDS011;69222;52.242;20.980;2023-07-13T09:27:26;4.00;;;3.65;;
17606;SDS011;69222;52.242;20.980;2023-07-13T09:30:01;4.63;;;3.67;;
17606;SDS011;69222;52.242;20.980;2023-07-13T09:32:44;4.60;;;3.92;;
17606;SDS011;69222;52.242;20.980;2023-07-13T09:35:19;5.65;;;4.38;;
17606;SDS011;69222;52.242;20.980;2023-07-13T09:37:49;7.38;;;3.63;;
17606;SDS011;69222;52.242;20.980;2023-07-13T09:40:20;9.88;;;3.60;;
17606;SDS011;69222;52.242;20.980;2023-07-13T09:42:53;8.60;;;3.80;;
17606;SDS011;69222;52.242;20.980;2023-07-13T09:45:27;8.85;;;3.60;;
17606;SDS011;69222;52.242;20.980;2023-07-13T09:48:02;4.00;;;2.95;;
17606;SDS011;69222;52.242;20.980;2023-07-13T09:50:33;8.18;;;3.47;;
17606;SDS011;69222;52.242;20.980;2023-07-13T09:53:01;5.10;;;3.10;;
17606;SDS011;69222;52.242;20.980;2023-07-13T09:55:31;7.25;;;3.28;;
17606;SDS011;69222;52.242;20.980;2023-07-13T09:58:04;4.60;;;3.10;;
17606;SDS011;69222;52.242;20.980;2023-07-13T10:00:35;3.35;;;2.90;;
17606;SDS011;69222;52.242;20.980;2023-07-13T10:03:05;3.30;;;3.00;;
17606;SDS011;69222;52.242;20.980;2023-07-13T10:05:41;4.40;;;2.75;;
17606;SDS011;69222;52.242;20.980;2023-07-13T10:08:16;3.03;;;2.72;;
17606;SDS011;69222;52.242;20.980;2023-07-13T10:10:46;4.28;;;2.75;;
17606;SDS011;69222;52.242;20.980;2023-07-13T10:13:32;3.17;;;2.88;;
17606;SDS011;69222;52.242;20.980;2023-07-13T10:16:06;3.08;;;2.78;;
17606;SDS011;69222;52.242;20.980;2023-07-13T10:18:37;5.25;;;2.80;;
17606;SDS011;69222;52.242;20.980;2023-07-13T10:21:14;3.42;;;3.13;;
17606;SDS011;69222;52.242;20.980;2023-07-13T10:23:48;3.35;;;3.05;;
17606;SDS011;69222;52.242;20.980;2023-07-13T10:26:20;6.15;;;3.38;;
17606;SDS011;69222;52.242;20.980;2023-07-13T10:28:52;3.65;;;3.20;;
17606;SDS011;69222;52.242;20.980;2023-07-13T10:31:25;3.22;;;2.92;;
17606;SDS011;69222;52.242;20.980;2023-07-13T10:33:53;4.65;;;3.20;;
17606;SDS011;69222;52.242;20.980;2023-07-13T10:36:25;5.05;;;2.90;;
17606;SDS011;69222;52.242;20.980;2023-07-13T10:38:58;4.68;;;3.10;;
17606;SDS011;69222;52.242;20.980;2023-07-13T10:41:30;4.95;;;3.13;;
17606;SDS011;69222;52.242;20.980;2023-07-13T10:44:03;6.55;;;3.92;;
17606;SDS011;69222;52.242;20.980;2023-07-13T10:46:40;6.53;;;4.43;;
17606;SDS011;69222;52.242;20.980;2023-07-13T10:49:09;12.18;;;5.30;;
17606;SDS011;69222;52.242;20.980;2023-07-13T10:51:39;6.25;;;3.80;;
17606;SDS011;69222;52.242;20.980;2023-07-13T10:54:11;5.57;;;3.67;;
17606;SDS011;69222;52.242;20.980;2023-07-13T10:56:46;5.68;;;3.65;;
17606;SDS011;69222;52.242;20.980;2023-07-13T10:59:17;4.82;;;3.83;;
17606;SDS011;69222;52.242;20.980;2023-07-13T11:01:57;8.68;;;4.10;;
17606;SDS011;69222;52.242;20.980;2023-07-13T11:04:39;7.57;;;3.70;;
17606;SDS011;69222;52.242;20.980;2023-07-13T11:07:18;8.02;;;5.07;;
17606;SDS011;69222;52.242;20.980;2023-07-13T11:09:52;8.32;;;4.75;;
17606;SDS011;69222;52.242;20.980;2023-07-13T11:12:27;7.88;;;5.10;;
17606;SDS011;69222;52.242;20.980;2023-07-13T11:15:11;12.60;;;6.00;;
17606;SDS011;69222;52.242;20.980;2023-07-13T11:17:49;14.50;;;6.93;;
17606;SDS011;69222;52.242;20.980;2023-07-13T11:20:22;11.10;;;5.95;;
17606;SDS011;69222;52.242;20.980;2023-07-13T11:23:15;10.93;;;5.97;;
17606;SDS011;69222;52.242;20.980;2023-07-13T11:25:46;13.88;;;5.70;;
17606;SDS011;69222;52.242;20.980;2023-07-13T11:28:16;9.98;;;5.97;;
17606;SDS011;69222;52.242;20.980;2023-07-13T11:30:48;12.80;;;6.35;;
17606;SDS011;69222;52.242;20.980;2023-07-13T11:33:30;10.38;;;5.30;;
17606;SDS011;69222;52.242;20.980;2023-07-13T11:36:18;15.07;;;5.63;;
17606;SDS011;69222;52.242;20.980;2023-07-13T11:38:51;9.05;;;5.05;;
17606;SDS011;69222;52.242;20.980;2023-07-13T11:41:26;9.20;;;5.50;;
17606;SDS011;69222;52.242;20.980;2023-07-13T11:44:02;9.75;;;5.20;;
17606;SDS011;69222;52.242;20.980;2023-07-13T11:46:34;84.85;;;15.00;;
17606;SDS011;69222;52.242;20.980;2023-07-13T11:49:05;7.97;;;5.13;;
17606;SDS011;69222;52.242;20.980;2023-07-13T11:51:35;8.25;;;4.82;;
17606;SDS011;69222;52.242;20.980;2023-07-13T11:54:04;6.68;;;4.60;;
17606;SDS011;69222;52.242;20.980;2023-07-13T11:56:34;12.65;;;4.57;;
17606;SDS011;69222;52.242;20.980;2023-07-13T11:59:05;5.00;;;4.40;;
17606;SDS011;69222;52.242;20.980;2023-07-13T12:01:35;7.68;;;4.43;;
17606;SDS011;69222;52.242;20.980;2023-07-13T12:04:14;5.47;;;3.70;;
17606;SDS011;69222;52.242;20.980;2023-07-13T12:06:54;7.18;;;3.67;;
17606;SDS011;69222;52.242;20.980;2023-07-13T12:09:26;5.63;;;3.75;;
17606;SDS011;69222;52.242;20.980;2023-07-13T12:11:56;3.63;;;3.30;;
17606;SDS011;69222;52.242;20.980;2023-07-13T12:14:27;3.33;;;3.03;;
17606;SDS011;69222;52.242;20.980;2023-07-13T12:16:55;5.40;;;3.75;;
17606;SDS011;69222;52.242;20.980;2023-07-13T12:19:25;3.97;;;3.00;;
17606;SDS011;69222;52.242;20.980;2023-07-13T12:21:56;4.95;;;3.28;;
17606;SDS011;69222;52.242;20.980;2023-07-13T12:24:26;4.05;;;3.00;;
17606;SDS011;69222;52.242;20.980;2023-07-13T12:26:58;5.43;;;3.10;;
17606;SDS011;69222;52.242;20.980;2023-07-13T12:29:28;4.22;;;3.30;;
17606;SDS011;69222;52.242;20.980;2023-07-13T12:31:57;4.65;;;3.20;;
17606;SDS011;69222;52.242;20.980;2023-07-13T12:34:27;5.70;;;3.30;;
17606;SDS011;69222;52.242;20.980;2023-07-13T12:36:56;3.47;;;3.03;;
17606;SDS011;69222;52.242;20.980;2023-07-13T12:39:28;5.18;;;4.05;;
17606;SDS011;69222;52.242;20.980;2023-07-13T12:42:11;8.02;;;4.35;;
17606;SDS011;69222;52.242;20.980;2023-07-13T12:44:47;9.68;;;4.68;;
17606;SDS011;69222;52.242;20.980;2023-07-13T12:47:16;11.45;;;5.50;;
17606;SDS011;69222;52.242;20.980;2023-07-13T12:49:52;10.95;;;5.47;;
17606;SDS011;69222;52.242;20.980;2023-07-13T12:52:23;9.02;;;5.13;;
17606;SDS011;69222;52.242;20.980;2023-07-13T12:55:01;7.97;;;5.13;;
17606;SDS011;69222;52.242;20.980;2023-07-13T12:57:37;6.18;;;4.47;;
17606;SDS011;69222;52.242;20.980;2023-07-13T13:00:14;9.30;;;4.82;;
17606;SDS011;69222;52.242;20.980;2023-07-13T13:02:51;19.92;;;6.03;;
17606;SDS011;69222;52.242;20.980;2023-07-13T13:05:35;11.77;;;5.82;;
17606;SDS011;69222;52.242;20.980;2023-07-13T13:08:04;17.50;;;7.03;;
17606;SDS011;69222;52.242;20.980;2023-07-13T13:10:32;16.95;;;7.90;;
17606;SDS011;69222;52.242;20.980;2023-07-13T13:13:02;16.63;;;7.55;;
17606;SDS011;69222;52.242;20.980;2023-07-13T13:15:30;12.75;;;6.28;;
17606;SDS011;69222;52.242;20.980;2023-07-13T13:17:59;11.02;;;7.10;;
17606;SDS011;69222;52.242;20.980;2023-07-13T13:20:27;10.85;;;6.10;;
17606;SDS011;69222;52.242;20.980;2023-07-13T13:22:57;11.13;;;7.43;;
17606;SDS011;69222;52.242;20.980;2023-07-13T13:25:25;12.27;;;7.35;;
17606;SDS011;69222;52.242;20.980;2023-07-13T13:27:53;15.05;;;6.47;;
17606;SDS011;69222;52.242;20.980;2023-07-13T13:30:21;10.50;;;6.97;;
17606;SDS011;69222;52.242;20.980;2023-07-13T13:32:49;13.02;;;7.00;;
17606;SDS011;69222;52.242;20.980;2023-07-13T13:35:18;11.98;;;7.30;;
17606;SDS011;69222;52.242;20.980;2023-07-13T13:37:48;13.52;;;7.18;;
17606;SDS011;69222;52.242;20.980;2023-07-13T13:40:19;11.93;;;7.18;;
17606;SDS011;69222;52.242;20.980;2023-07-13T13:42:49;10.25;;;7.63;;
17606;SDS011;69222;52.242;20.980;2023-07-13T13:45:19;18.65;;;7.22;;
17606;SDS011;69222;52.242;20.980;2023-07-13T13:47:47;10.02;;;6.93;;
17606;SDS011;69222;52.242;20.980;2023-07-13T13:50:16;10.27;;;7.60;;
17606;SDS011;69222;52.242;20.980;2023-07-13T13:52:47;15.13;;;7.53;;
17606;SDS011;69222;52.242;20.980;2023-07-13T13:55:15;14.85;;;7.70;;
17606;SDS011;69222;52.242;20.980;2023-07-13T13:57:47;13.32;;;7.18;;
17606;SDS011;69222;52.242;20.980;2023-07-13T14:00:18;12.18;;;7.65;;
17606;SDS011;69222;52.242;20.980;2023-07-13T14:02:48;11.60;;;7.75;;
17606;SDS011;69222;52.242;20.980;2023-07-13T14:05:19;11.13;;;7.18;;
17606;SDS011;69222;52.242;20.980;2023-07-13T14:07:49;10.50;;;7.60;;
17606;SDS011;69222;52.242;20.980;2023-07-13T14:10:17;12.10;;;7.63;;
17606;SDS011;69222;52.242;20.980;2023-07-13T14:12:48;10.27;;;7.57;;
17606;SDS011;69222;52.242;20.980;2023-07-13T14:15:20;11.90;;;7.28;;
17606;SDS011;69222;52.242;20.980;2023-07-13T14:17:50;11.18;;;7.68;;
17606;SDS011;69222;52.242;20.980;2023-07-13T14:20:18;9.30;;;7.70;;
17606;SDS011;69222;52.242;20.980;2023-07-13T14:22:48;10.20;;;7.43;;
17606;SDS011;69222;52.242;20.980;2023-07-13T14:25:17;10.98;;;7.70;;
17606;SDS011;69222;52.242;20.980;2023-07-13T14:27:49;12.88;;;7.82;;
17606;SDS011;69222;52.242;20.980;2023-07-13T14:30:22;11.32;;;7.22;;
17606;SDS011;69222;52.242;20.980;2023-07-13T14:32:50;12.73;;;7.72;;
17606;SDS011;69222;52.242;20.980;2023-07-13T14:35:19;8.57;;;6.82;;
17606;SDS011;69222;52.242;20.980;2023-07-13T14:37:50;10.38;;;7.80;;
17606;SDS011;69222;52.242;20.980;2023-07-13T14:40:22;10.35;;;8.05;;
17606;SDS011;69222;52.242;20.980;2023-07-13T14:42:55;8.90;;;7.47;;
17606;SDS011;69222;52.242;20.980;2023-07-13T14:45:23;10.32;;;8.20;;
17606;SDS011;69222;52.242;20.980;2023-07-13T14:47:53;12.13;;;8.07;;